Main page
METAR-TAF:

METAR-TAF

Airports :

Vadodara Airport

Vadodara, India

latitude: 22-19-46N, longitude: 73-13-10E, elevation: 39 m

Current weather observation

The report was made 6 hours and 45 minutes ago, at 15:00 UTC
Wind 6 kt from the East/Northeast
Temperature 27°C
Humidity 51%
Pressure 1014 hPa
Visibility: 6000 m

METAR: VABO 281500Z 07006KT 6000 NSC 27/16 Q1014 NOSIG

Time: 03:15 (21:45 UTC)

Forecast

The report was made 1 hour and 45 minutes ago, at 20:00 UTC
Forecast valid from 28 at 21 UTC to 29 at 06 UTC
Wind 6 kt from the East/Northeast
Visibility: 6000 m
Becoming
from 29 at 01 UTC to 29 at 03 UTC
Wind 3 kt from the East/Northeast
Visibility: 4000 m
Few clouds at a height of 8000 ft
haze
Becoming
from 29 at 04 UTC to 29 at 06 UTC
Visibility: 6000 m

TAF: VABO 282000Z 2821/2906 07006KT 6000 NSC BECMG 2901/2903 07003KT 4000 HZ FEW080 BECMG 2904/2906 6000

Weather observations and forecasts of more than 4000 airports (METAR and TAF reports).

The available stations are represented by yellow and red dots on the map.

Hover mouse over dot to see the name of the station.

Then click to see weather observations and forecasts.

To change the map : click on the green buttons with a black cross to zoom in, on the green button with a dash to zoom out, or on the green arrows for adjacent maps.


METAR-TAF: